Aeroporto :
LOGIN :

Iscrizione | Disclaimer

   EN    FR    IT 

 










Sommario :    VFR   VFR Marginale   IFR   IFR Intensivo   IFR Molto Intensivo
Visibilità : 
Base nubi : 
>= 8 km
>= 3000ft
5 / 8 km
1000 / 3000 ft
1500m / 5 km
500 / 1000 ft
800 / 1500m
200 / 500 ft
< 800m
< 200 ft
Simboli :   Temporali  Nebbia  Neve Forte  Precipitazioni Forti  Vento > 20 kt
SIGMETs :   Varie  Temporali  Ghiacco  Turbolenza  Onda orograficha  Ceneri Vulcaniche






- Altitudine del aeroporto : 230 ft
- Codice IATA : TBJ


DTKA - Tabarka 7 Novembre

ULTIMO METAR :
  • 191500Z 10011KT 9999 FEW020 17/07 Q1015 NOSIG

METARs OBSOLETI :
  • 191400Z 13006KT 040V170 9999 FEW020 18/04 Q1015 NOSIG
  • 191300Z 17009KT 120V210 9999 FEW020 18/02 Q1016 NOSIG

TAF TAF DTKA
Valido dal 19 a 13 ore il 19 a 22 ore UTC


191200Z 1913/1922 17009KT 9999 FEW020



MetMap, La meteo Aeronautica in un colpo d'occhio ! - Copyright ORBIFLY Dicembre 2007 - Disclaimer

ORBIFLY MET'MAP TEAM :

Programmazione e sviluppo : Alexandra Zaïnal
Concezione : Baudouin d'Aumeries
Aiuto per la programmazione : Marc-Olivier Méhu
Supporto tecnico e logistico : Manuel Goepfert
Aiuto per la traduzione : Arnaldo La Scala

Contatto : metmap@orbifly.com




FONTI E CREDITI :

   NOAA